Hannover, Germany

7:58 AM CET on March 01, 2015 (GMT +0100)
Hannover | Change Station
CLOSE
Current Station
Airport
Location: Hannover,
Elevation: 180 ft
Nearby Weather Stations

Elev 180 ft 52.47 °N, 9.68 °E | Updated 8 minutes ago

Light Rain
Light Rain Drizzle
39 °F
Feels Like 30 °F
N
20
Wind Variable Wind from South

Today
High -- | Low -- °F
--% Chance of Precip.
Yesterday
High -- | Low -- °F
Precip. -- in
7:08 AM 5:59 PM
Waxing Gibbous, 83% visible
Pressure 29.53 in
Visibility 5.0 miles
Clouds Few 900 ft
Scattered Clouds 1400 ft
Mostly Cloudy 2000 ft
Windchill 30 °F
Dew Point 36 °F
Humidity 87%
Rainfall 0.00 in
Snow Depth Not available.
UV 0 out of 12
Pollen Not available.
Air Quality Not available.
Flu Activity Not available.
METAR EDDV 010650Z 19017KT 8000 -RADZ FEW009 SCT014 BKN020 04/02 Q1000 TEMPO 19015G25KT BKN012

More Conditions Fewer Conditions

Pressure 29.53 in
Visibility 5.0 miles
Clouds Few 900 ft
Scattered Clouds 1400 ft
Mostly Cloudy 2000 ft
Windchill 30 °F
Dew Point 36 °F
Humidity 87%
Rainfall 0.00 in
Snow Depth Not available.
UV 0 out of 12
Pollen Not available.
Air Quality Not available.
Flu Activity Not available.
METAR EDDV 010650Z 19017KT 8000 -RADZ FEW009 SCT014 BKN020 04/02 Q1000 TEMPO 19015G25KT BKN012

More Conditions Fewer Conditions

10-Day Weather Forecast

Almanac

Astronomy

Mar. 01, 2015 Rise Set
Actual Time
Civil Twilight
Nautical Twilight
Astronomical Twilight
Moon
Length of Visible Light
Length of Day
Tomorrow will be .
, % of the Moon is Illuminated

Today's Extremes

Country Highs Country Lows

Community

WunderPhotos

Upload Photos

1,801,345 photos uploaded!

WunderBlogs® & News

Nearby

Air Quality

  Air Quality AQ Index Pollutant
Not available.

Snow Depth

Station Depth Elevation

Earthquake Activity

City Distance Mag. Time & Date
Minimum magnitude displayed is 2.5.

Coastal Water Temperatures

Place Temperature

Nearby Weather Stations